Litchfield, MN

5:51 PM CDT on August 28, 2016 (GMT -0500)
Litchfield Municipal

Weather History for KLJF - October, 2011

Change the Weather History Date:

Friday, October 14, 2011

  Actual Average Record
Temperature  
Mean Temperature 50 °F -  
Max Temperature 55 °F 61 °F 81 °F (1953)
Min Temperature 44 °F 38 °F 25 °F (1970)
Degree Days  
Heating Degree Days 16    
Moisture  
Dew Point 42 °F    
Average Humidity 76    
Maximum Humidity 100    
Minimum Humidity 51    
Precipitation  
Precipitation 0.00 in - - ()
Sea Level Pressure  
Sea Level Pressure 29.74 in    
Wind  
Wind Speed 12 mph (NW)    
Max Wind Speed 22 mph    
Max Gust Speed 31 mph    
Visibility 10 miles    
Events Rain    
Averages and records for this station are not official NWS values.
T = Trace of Precipitation, MM = Missing Value Source: NWS Daily Summary

Daily Weather History Graph

Daily Weather History Graph

Search for Another Location

Airport or City:

Trip Planner

Search our weather history database for the weather conditions in past years. The results will help you decide how hot, cold, wet, or windy it might be!

Date:

Astronomy

Oct. 14, 2011 Rise Set
Actual Time 7:32 AM CDT 6:35 PM CDT
Civil Twilight 7:02 AM CDT 7:04 PM CDT
Nautical Twilight 6:28 AM CDT 7:38 PM CDT
Astronomical Twilight 5:54 AM CDT 8:12 PM CDT
Moon 7:39 PM CDT (10/14) 10:11 AM CDT (10/14)
Length of Visible Light 12h 02m
Length of Day
11h 02m
Waning Gibbous, 94% of the Moon is Illuminated
Oct 14
Waning Gibbous
Oct 19
Last Quarter
Oct 26
New
Nov 2
First Quarter
Nov 10
Full

Hourly Weather History & Observations

Time (CDT) Temp. Windchill Dew Point Humidity Pressure Visibility Wind Dir Wind Speed Gust Speed Precip Events Conditions
12:33 AM 50.0 °F - 46.4 °F 87% 29.67 in 10.0 mi WNW 10.4 mph 20.7 mph N/A   Overcast
12:53 AM 50.0 °F - 46.4 °F 87% 29.67 in 10.0 mi WNW 10.4 mph 18.4 mph N/A   Overcast
1:13 AM 48.2 °F - 46.4 °F 93% 29.68 in 10.0 mi WNW 10.4 mph - N/A   Overcast
1:33 AM 48.2 °F - 46.4 °F 93% 29.68 in 10.0 mi WNW 9.2 mph - N/A   Mostly Cloudy
1:53 AM 48.2 °F - 46.4 °F 93% 29.68 in 10.0 mi WNW 11.5 mph - N/A   Scattered Clouds
2:12 AM 48.2 °F - 46.4 °F 93% 29.68 in 10.0 mi West 8.1 mph - N/A   Clear
2:33 AM 46.4 °F 41.1 °F 46.4 °F 100% 29.69 in 10.0 mi West 11.5 mph - N/A   Scattered Clouds
2:53 AM 46.4 °F 41.9 °F 46.4 °F 100% 29.69 in 10.0 mi WNW 9.2 mph - N/A   Mostly Cloudy
3:13 AM 46.4 °F 40.7 °F 46.4 °F 100% 29.68 in 10.0 mi WNW 12.7 mph - N/A   Scattered Clouds
3:33 AM 46.4 °F 41.5 °F 46.4 °F 100% 29.68 in 10.0 mi WNW 10.4 mph - N/A   Clear
3:53 AM 46.4 °F 41.9 °F 44.6 °F 93% 29.68 in 10.0 mi WNW 9.2 mph - N/A   Clear
4:12 AM 46.4 °F 41.5 °F 44.6 °F 93% 29.69 in 10.0 mi WNW 10.4 mph 19.6 mph N/A   Clear
4:33 AM 46.4 °F 41.5 °F 46.4 °F 100% 29.69 in 10.0 mi NW 10.4 mph 16.1 mph N/A   Scattered Clouds
4:53 AM 46.4 °F 41.5 °F 44.6 °F 93% 29.69 in 10.0 mi WNW 10.4 mph 18.4 mph N/A   Overcast
5:13 AM 46.4 °F 41.5 °F 44.6 °F 93% 29.70 in 10.0 mi WNW 10.4 mph 18.4 mph N/A   Overcast
5:33 AM 46.4 °F 41.9 °F 44.6 °F 93% 29.70 in 10.0 mi WNW 9.2 mph 18.4 mph N/A   Mostly Cloudy
5:53 AM 46.4 °F 41.5 °F 44.6 °F 93% 29.70 in 10.0 mi NW 10.4 mph - N/A   Clear
6:12 AM 46.4 °F 41.9 °F 44.6 °F 93% 29.71 in 10.0 mi WNW 9.2 mph 16.1 mph N/A   Scattered Clouds
6:33 AM 46.4 °F 41.1 °F 44.6 °F 93% 29.72 in 10.0 mi WNW 11.5 mph 17.3 mph N/A   Clear
6:53 AM 46.4 °F 40.7 °F 42.8 °F 87% 29.71 in 10.0 mi NW 12.7 mph 17.3 mph N/A   Mostly Cloudy
7:13 AM 44.6 °F 39.2 °F 42.8 °F 93% 29.71 in 10.0 mi NW 10.4 mph 18.4 mph N/A   Mostly Cloudy
7:33 AM 44.6 °F 39.7 °F 42.8 °F 93% 29.72 in 10.0 mi WNW 9.2 mph - N/A   Mostly Cloudy
8:13 AM 44.6 °F 39.7 °F 42.8 °F 93% 29.72 in 10.0 mi NW 9.2 mph - N/A   Mostly Cloudy
8:33 AM 46.4 °F 41.1 °F 41.0 °F 81% 29.73 in 10.0 mi WNW 11.5 mph 20.7 mph N/A   Scattered Clouds
8:53 AM 46.4 °F 40.7 °F 41.0 °F 81% 29.73 in 10.0 mi WNW 12.7 mph 19.6 mph N/A   Clear
9:13 AM 46.4 °F 39.8 °F 39.2 °F 76% 29.74 in 10.0 mi NW 16.1 mph 21.9 mph N/A   Clear
9:33 AM 46.4 °F 38.7 °F 39.2 °F 76% 29.75 in 10.0 mi NW 20.7 mph 25.3 mph N/A   Clear
9:52 AM 48.2 °F - 39.2 °F 71% 29.76 in 10.0 mi NW 16.1 mph 25.3 mph N/A   Scattered Clouds
10:13 AM 48.2 °F - 37.4 °F 66% 29.76 in 10.0 mi NNW 21.9 mph 27.6 mph N/A   Scattered Clouds
10:33 AM 48.2 °F - 37.4 °F 66% 29.77 in 10.0 mi NW 17.3 mph 27.6 mph N/A   Scattered Clouds
10:53 AM 48.2 °F - 37.4 °F 66% 29.77 in 10.0 mi NW 12.7 mph 23.0 mph N/A   Scattered Clouds
11:13 AM 48.2 °F - 37.4 °F 66% 29.77 in 10.0 mi NW 17.3 mph 25.3 mph N/A   Scattered Clouds
11:53 AM 51.8 °F - 37.4 °F 58% 29.77 in 10.0 mi NW 17.3 mph 26.5 mph N/A   Mostly Cloudy
12:13 PM 51.8 °F - 37.4 °F 58% 29.78 in 10.0 mi NW 13.8 mph 24.2 mph N/A   Mostly Cloudy
12:33 PM 51.8 °F - 37.4 °F 58% 29.78 in 10.0 mi NW 13.8 mph 24.2 mph N/A   Mostly Cloudy
12:53 PM 51.8 °F - 37.4 °F 58% 29.78 in 10.0 mi NW 17.3 mph 25.3 mph N/A   Mostly Cloudy
1:13 PM 51.8 °F - 37.4 °F 58% 29.77 in 10.0 mi WNW 17.3 mph 24.2 mph N/A   Mostly Cloudy
1:33 PM 53.6 °F - 37.4 °F 54% 29.77 in 10.0 mi NW 16.1 mph 25.3 mph N/A   Scattered Clouds
1:53 PM 55.4 °F - 37.4 °F 51% 29.77 in 10.0 mi NW 13.8 mph 25.3 mph N/A   Mostly Cloudy
2:13 PM 53.6 °F - 35.6 °F 51% 29.77 in 10.0 mi NW 18.4 mph 25.3 mph N/A   Overcast
2:33 PM 53.6 °F - 35.6 °F 51% 29.77 in 10.0 mi NW 19.6 mph 25.3 mph N/A   Overcast
2:53 PM 53.6 °F - 35.6 °F 51% 29.77 in 10.0 mi NW 19.6 mph 29.9 mph N/A   Overcast
3:13 PM 53.6 °F - 35.6 °F 51% 29.78 in 10.0 mi NW 16.1 mph 26.5 mph N/A   Mostly Cloudy
3:32 PM 55.4 °F - 37.4 °F 51% 29.78 in 10.0 mi WNW 16.1 mph 25.3 mph N/A   Scattered Clouds
3:53 PM 55.4 °F - 37.4 °F 51% 29.78 in 10.0 mi WNW 16.1 mph 31.1 mph N/A   Mostly Cloudy
4:13 PM 53.6 °F - 39.2 °F 58% 29.78 in 10.0 mi WNW 12.7 mph 26.5 mph N/A   Mostly Cloudy
4:32 PM 51.8 °F - 42.8 °F 71% 29.79 in 7.0 mi WNW 20.7 mph 29.9 mph N/A Rain Light Rain
4:53 PM 51.8 °F - 41.0 °F 67% 29.79 in 10.0 mi WNW 17.3 mph 29.9 mph N/A   Scattered Clouds
5:13 PM 53.6 °F - 42.8 °F 67% 29.79 in 10.0 mi WNW 20.7 mph 26.5 mph N/A   Scattered Clouds
5:32 PM 53.6 °F - 42.8 °F 67% 29.79 in 10.0 mi WNW 16.1 mph 27.6 mph N/A   Mostly Cloudy
5:53 PM 51.8 °F - 42.8 °F 71% 29.79 in 10.0 mi WNW 13.8 mph 20.7 mph N/A   Scattered Clouds
6:13 PM 51.8 °F - 42.8 °F 71% 29.80 in 10.0 mi WNW 11.5 mph 24.2 mph N/A   Scattered Clouds
6:33 PM 51.8 °F - 42.8 °F 71% 29.80 in 10.0 mi WNW 15.0 mph 23.0 mph N/A   Mostly Cloudy
6:53 PM 51.8 °F - 44.6 °F 76% 29.81 in 10.0 mi WNW 17.3 mph 24.2 mph N/A   Scattered Clouds
7:12 PM 50.0 °F - 41.0 °F 71% 29.81 in 10.0 mi WNW 18.4 mph 26.5 mph N/A   Clear
7:33 PM 50.0 °F - 42.8 °F 76% 29.82 in 10.0 mi WNW 16.1 mph 26.5 mph N/A   Clear
7:53 PM 48.2 °F - 41.0 °F 76% 29.82 in 10.0 mi WNW 13.8 mph 23.0 mph N/A   Clear
8:12 PM 48.2 °F - 41.0 °F 76% 29.83 in 10.0 mi WNW 11.5 mph 25.3 mph N/A   Clear
8:33 PM 48.2 °F - 41.0 °F 76% 29.83 in 10.0 mi NW 12.7 mph 23.0 mph N/A   Scattered Clouds
8:53 PM 48.2 °F - 39.2 °F 71% 29.83 in 10.0 mi WNW 13.8 mph 20.7 mph N/A   Scattered Clouds
9:12 PM 48.2 °F - 37.4 °F 66% 29.84 in 10.0 mi WNW 15.0 mph 23.0 mph N/A   Clear
9:33 PM 48.2 °F - 37.4 °F 66% 29.84 in 10.0 mi WNW 15.0 mph 24.2 mph N/A   Scattered Clouds
9:53 PM 48.2 °F - 35.6 °F 62% 29.84 in 10.0 mi WNW 11.5 mph - N/A   Clear
10:13 PM 48.2 °F - 37.4 °F 66% 29.85 in 10.0 mi WNW 13.8 mph 20.7 mph N/A   Clear
10:32 PM 46.4 °F 41.9 °F 37.4 °F 71% 29.85 in 10.0 mi WNW 9.2 mph - N/A   Clear
10:53 PM 46.4 °F 41.9 °F 37.4 °F 71% 29.85 in 10.0 mi West 9.2 mph 16.1 mph N/A   Clear
11:13 PM 46.4 °F 41.5 °F 37.4 °F 71% 29.85 in 10.0 mi West 10.4 mph 18.4 mph N/A   Clear
11:33 PM 46.4 °F 41.1 °F 37.4 °F 71% 29.84 in 10.0 mi WNW 11.5 mph 17.3 mph N/A   Clear
11:53 PM 46.4 °F 41.1 °F 37.4 °F 71% 29.85 in 10.0 mi WNW 11.5 mph 18.4 mph N/A   Clear